Time;durP1;ratioP1;P1;durP2;ratioP2;P2;SDS_P1;SDS_P2;PMS_P1;PMS_P2;Temp;Humidity;BMP_temperature;BMP_pressure;BME280_temperature;BME280_humidity;BME280_pressure;Samples;Min_cycle;Max_cycle;Signal;HPM_P1;HPM_P2
2022/09/01 00:01:53;;;;;;;17.73;16.43;;;16.10;99.90;;;;;;6046297;23;20436;-71
2022/09/01 00:04:25;;;;;;;19.17;17.67;;;16.10;99.90;;;;;;6041933;23;21021;-71
2022/09/01 00:06:54;;;;;;;19.07;17.57;;;16.10;99.90;;;;;;6040549;23;20462;-71
2022/09/01 00:09:24;;;;;;;17.90;16.50;;;16.10;99.90;;;;;;6034347;23;20479;-71
2022/09/01 00:11:53;;;;;;;18.03;16.73;;;16.10;99.90;;;;;;6050899;23;20956;-71
2022/09/01 00:14:23;;;;;;;17.70;16.40;;;16.10;99.90;;;;;;6043584;23;20991;-71
2022/09/01 00:16:50;;;;;;;19.17;17.67;;;16.10;99.90;;;;;;6045156;23;20448;-71
2022/09/01 00:19:18;;;;;;;17.83;16.33;;;16.10;99.90;;;;;;6052687;23;20513;-71
2022/09/01 00:21:48;;;;;;;16.93;15.70;;;16.10;99.90;;;;;;6045246;23;20436;-71
2022/09/01 00:24:16;;;;;;;17.23;15.93;;;16.10;99.90;;;;;;6060994;23;20451;-71
2022/09/01 00:26:44;;;;;;;16.83;15.63;;;16.10;99.90;;;;;;6054013;23;20970;-71
2022/09/01 00:29:11;;;;;;;16.53;15.33;;;16.10;99.90;;;;;;6042503;23;20480;-71
2022/09/01 00:31:39;;;;;;;19.50;17.93;;;16.10;99.90;;;;;;6052288;23;20824;-71
2022/09/01 00:34:06;;;;;;;18.10;16.60;;;16.00;99.90;;;;;;6044461;23;20498;-71
2022/09/01 00:36:33;;;;;;;18.53;17.10;;;16.00;99.90;;;;;;6046438;23;20476;-71
2022/09/01 00:39:02;;;;;;;16.97;15.63;;;16.00;99.90;;;;;;6037987;23;20521;-71
2022/09/01 00:41:32;;;;;;;15.97;14.67;;;16.00;99.90;;;;;;6047926;23;20443;-71
2022/09/01 00:44:04;;;;;;;16.90;15.60;;;15.90;99.90;;;;;;6033348;23;20803;-71
2022/09/01 00:46:34;;;;;;;17.23;15.93;;;15.90;99.90;;;;;;6041239;23;20458;-71
2022/09/01 00:49:05;;;;;;;16.00;14.73;;;15.90;99.90;;;;;;6050323;23;20486;-71
2022/09/01 00:51:34;;;;;;;17.50;16.10;;;15.90;99.90;;;;;;6053393;23;20451;-71
2022/09/01 00:54:03;;;;;;;18.27;16.97;;;15.90;99.90;;;;;;6051578;23;20444;-71
2022/09/01 00:56:33;;;;;;;19.27;17.67;;;15.90;99.90;;;;;;6058015;23;20996;-71
2022/09/01 00:59:01;;;;;;;17.97;16.67;;;15.80;99.90;;;;;;6037170;23;20564;-71
2022/09/01 01:01:28;;;;;;;18.37;16.87;;;15.80;99.90;;;;;;6037537;23;21015;-70
2022/09/01 01:04:01;;;;;;;18.30;16.90;;;15.70;99.90;;;;;;6048637;23;20526;-71
2022/09/01 01:06:31;;;;;;;19.50;17.90;;;15.70;99.90;;;;;;6056001;23;20455;-71
2022/09/01 01:09:00;;;;;;;21.07;19.27;;;15.70;99.90;;;;;;6037803;23;20959;-71
2022/09/01 01:11:31;;;;;;;19.70;18.20;;;15.80;99.90;;;;;;6044515;23;20471;-71
2022/09/01 01:14:09;;;;;;;17.77;16.37;;;15.70;99.90;;;;;;6041451;23;20953;-71
2022/09/01 01:16:36;;;;;;;18.23;16.80;;;15.70;99.90;;;;;;6053070;23;20518;-72
2022/09/01 01:19:04;;;;;;;17.90;16.60;;;15.60;99.90;;;;;;6052879;23;20551;-71
2022/09/01 01:24:27;;;;;;;19.00;17.50;;;15.50;99.90;;;;;;6009671;23;20443;-71
2022/09/01 01:26:56;;;;;;;17.57;16.27;;;15.50;99.90;;;;;;6050213;23;20431;-71
2022/09/01 01:29:24;;;;;;;18.80;17.30;;;15.40;99.90;;;;;;6035323;23;20983;-70
2022/09/01 01:31:52;;;;;;;19.23;17.73;;;15.40;99.90;;;;;;6046029;23;20854;-71
2022/09/01 01:34:21;;;;;;;18.80;17.10;;;15.30;99.90;;;;;;6052573;23;20500;-71
2022/09/01 01:36:49;;;;;;;20.17;18.47;;;15.30;99.90;;;;;;6053816;23;20459;-71
2022/09/01 01:39:20;;;;;;;18.13;16.83;;;15.20;99.90;;;;;;6045763;23;20463;-71
2022/09/01 01:41:49;;;;;;;18.00;16.70;;;15.20;99.90;;;;;;6047000;23;20459;-71
2022/09/01 01:44:19;;;;;;;17.90;16.57;;;15.20;99.90;;;;;;6050544;23;20471;-71
2022/09/01 01:46:50;;;;;;;18.40;17.10;;;15.20;99.90;;;;;;6049962;23;20494;-71
2022/09/01 01:49:20;;;;;;;19.60;18.00;;;15.20;99.90;;;;;;6053891;23;20562;-71
2022/09/01 01:51:54;;;;;;;18.27;16.93;;;15.20;99.90;;;;;;6050269;23;20496;-71
2022/09/01 01:54:22;;;;;;;18.77;17.37;;;15.20;99.90;;;;;;6044822;23;20446;-71
2022/09/01 01:56:51;;;;;;;20.77;19.17;;;15.10;99.90;;;;;;6058033;23;20438;-71
2022/09/01 01:59:18;;;;;;;19.47;17.87;;;15.10;99.90;;;;;;6036857;23;20590;-71
2022/09/01 02:01:50;;;;;;;20.73;19.20;;;15.00;99.90;;;;;;6053693;23;20478;-71
2022/09/01 02:04:18;;;;;;;20.40;18.80;;;15.00;99.90;;;;;;6054787;23;20461;-70
2022/09/01 02:06:48;;;;;;;20.77;19.10;;;15.00;99.90;;;;;;6035047;23;20491;-71
2022/09/01 02:09:17;;;;;;;20.50;18.90;;;15.00;99.90;;;;;;6038712;23;20558;-71
2022/09/01 02:11:44;;;;;;;22.03;20.33;;;14.90;99.90;;;;;;6055060;23;20517;-71
2022/09/01 02:14:14;;;;;;;20.33;18.73;;;14.90;99.90;;;;;;6056812;23;20443;-71
2022/09/01 02:16:42;;;;;;;20.00;18.40;;;14.90;99.90;;;;;;6058568;23;20504;-71
2022/09/01 02:19:11;;;;;;;19.50;18.00;;;14.90;99.90;;;;;;6047216;23;21020;-71
2022/09/01 02:21:48;;;;;;;20.27;18.70;;;14.90;99.90;;;;;;6051330;23;20533;-71
2022/09/01 02:24:15;;;;;;;19.60;18.03;;;14.90;99.90;;;;;;6047673;23;21252;-71
2022/09/01 02:26:47;;;;;;;21.40;19.70;;;14.80;99.90;;;;;;6040999;23;20451;-71
2022/09/01 02:29:20;;;;;;;20.50;18.90;;;14.80;99.90;;;;;;6050656;23;20489;-70
2022/09/01 02:31:50;;;;;;;19.13;17.53;;;14.80;99.90;;;;;;6050226;23;20477;-71
2022/09/01 02:34:18;;;;;;;20.37;18.40;;;14.80;99.90;;;;;;6041173;23;20856;-71
2022/09/01 02:36:47;;;;;;;18.13;16.73;;;14.70;99.90;;;;;;6048805;23;20451;-71
2022/09/01 02:39:15;;;;;;;20.00;18.30;;;14.80;99.90;;;;;;6047881;23;21130;-71
2022/09/01 02:41:43;;;;;;;19.07;17.57;;;14.80;99.90;;;;;;6047107;23;20526;-71
2022/09/01 02:44:11;;;;;;;19.50;17.97;;;14.70;99.90;;;;;;6054731;23;20525;-70
2022/09/01 02:46:41;;;;;;;19.43;18.00;;;14.70;99.90;;;;;;6038323;23;20969;-71
2022/09/01 02:49:14;;;;;;;20.33;18.90;;;14.60;99.90;;;;;;6047970;23;20480;-71
2022/09/01 02:51:42;;;;;;;19.67;18.17;;;14.60;99.90;;;;;;6055474;23;20482;-71
2022/09/01 02:54:09;;;;;;;19.53;18.00;;;14.60;99.90;;;;;;6054800;23;20450;-71
2022/09/01 02:56:36;;;;;;;19.50;17.90;;;14.60;99.90;;;;;;6052535;23;20522;-71
2022/09/01 02:59:04;;;;;;;21.27;19.60;;;14.70;99.90;;;;;;6049863;23;20463;-72
2022/09/01 03:01:32;;;;;;;20.70;19.10;;;14.70;99.90;;;;;;6054721;23;20443;-71
2022/09/01 03:04:06;;;;;;;20.30;18.43;;;14.70;99.90;;;;;;6047577;23;20511;-71
2022/09/01 03:06:35;;;;;;;18.33;17.00;;;14.70;99.90;;;;;;6049156;23;20456;-71
2022/09/01 03:09:05;;;;;;;20.17;18.57;;;14.70;99.90;;;;;;6045731;23;20458;-71
2022/09/01 03:11:35;;;;;;;18.60;17.07;;;14.70;99.90;;;;;;6057518;23;20450;-71
2022/09/01 03:14:02;;;;;;;20.20;18.53;;;14.70;99.90;;;;;;6056046;23;20460;-71
2022/09/01 03:16:30;;;;;;;20.77;19.17;;;14.70;99.90;;;;;;6055546;23;20449;-71
2022/09/01 03:18:57;;;;;;;19.63;18.03;;;14.70;99.90;;;;;;6045379;23;20493;-71
2022/09/01 03:21:26;;;;;;;19.37;17.83;;;14.70;99.90;;;;;;6034916;23;20539;-71
2022/09/01 03:23:54;;;;;;;18.97;17.43;;;14.70;99.90;;;;;;6051602;23;20953;-71
2022/09/01 03:26:21;;;;;;;22.47;20.60;;;14.80;99.90;;;;;;6046058;23;20508;-71
2022/09/01 03:28:49;;;;;;;21.63;19.83;;;14.80;99.90;;;;;;6034890;23;20504;-71
2022/09/01 03:31:17;;;;;;;20.37;18.77;;;14.80;99.90;;;;;;6056414;23;20525;-71
2022/09/01 03:33:44;;;;;;;20.77;19.03;;;14.80;99.90;;;;;;6038050;23;20475;-71
2022/09/01 03:36:17;;;;;;;20.20;18.60;;;14.80;99.90;;;;;;6059472;23;20441;-71
2022/09/01 03:38:47;;;;;;;20.30;18.63;;;14.80;99.90;;;;;;6054596;23;20484;-71
2022/09/01 03:41:16;;;;;;;19.97;18.37;;;14.80;99.90;;;;;;6050051;23;20486;-71
2022/09/01 03:43:44;;;;;;;20.83;19.13;;;14.80;99.90;;;;;;6048706;23;20887;-71
2022/09/01 03:46:17;;;;;;;19.83;18.20;;;14.70;99.90;;;;;;6060430;23;20442;-71
2022/09/01 03:48:44;;;;;;;20.23;18.63;;;14.70;99.90;;;;;;6042599;23;20462;-71
2022/09/01 03:51:13;;;;;;;19.13;17.63;;;14.70;99.90;;;;;;6056653;23;20486;-71
2022/09/01 03:53:40;;;;;;;20.33;18.60;;;14.70;99.90;;;;;;6055208;23;20464;-71
2022/09/01 03:56:10;;;;;;;19.43;18.03;;;14.70;99.90;;;;;;6055555;23;20523;-71
2022/09/01 03:58:37;;;;;;;20.60;18.83;;;14.60;99.90;;;;;;6042921;23;20958;-71
2022/09/01 04:01:04;;;;;;;20.17;18.57;;;14.70;99.90;;;;;;6048762;23;20964;-71
2022/09/01 04:03:33;;;;;;;21.10;19.50;;;14.60;99.90;;;;;;6047385;23;20503;-71
2022/09/01 04:06:01;;;;;;;22.53;20.83;;;14.60;99.90;;;;;;6060238;23;20503;-71
2022/09/01 04:08:29;;;;;;;20.47;18.80;;;14.50;99.90;;;;;;6053263;23;20544;-71
2022/09/01 04:10:58;;;;;;;22.40;20.50;;;14.50;99.90;;;;;;6058181;23;20534;-71
2022/09/01 04:13:30;;;;;;;24.47;22.47;;;14.50;99.90;;;;;;6060874;23;20948;-71
2022/09/01 04:15:58;;;;;;;23.37;21.47;;;14.40;99.90;;;;;;6055286;23;20537;-71
2022/09/01 04:18:25;;;;;;;23.43;21.63;;;14.40;99.90;;;;;;6041772;23;20459;-71
2022/09/01 04:20:55;;;;;;;25.17;23.13;;;14.40;99.90;;;;;;6047773;23;21544;-71
2022/09/01 04:23:26;;;;;;;23.17;21.33;;;14.40;99.90;;;;;;6046217;23;20475;-71
2022/09/01 04:25:55;;;;;;;24.70;22.70;;;14.40;99.90;;;;;;6063461;23;20433;-72
2022/09/01 04:28:25;;;;;;;23.07;21.17;;;14.40;99.90;;;;;;6037243;23;21011;-71
2022/09/01 04:30:57;;;;;;;24.10;22.27;;;14.40;99.90;;;;;;6061993;23;20519;-71
2022/09/01 04:33:26;;;;;;;25.90;23.80;;;14.40;99.90;;;;;;6064970;23;21344;-71
2022/09/01 04:35:55;;;;;;;25.10;22.90;;;14.40;99.90;;;;;;6037168;23;20926;-72
2022/09/01 04:38:24;;;;;;;23.80;21.80;;;14.40;99.90;;;;;;6054846;23;20461;-72
2022/09/01 04:40:52;;;;;;;24.33;22.37;;;14.40;99.90;;;;;;6066230;23;20529;-72
2022/09/01 04:43:19;;;;;;;24.20;22.17;;;14.40;99.90;;;;;;6048351;23;20792;-72
2022/09/01 04:45:50;;;;;;;24.97;23.07;;;14.40;99.90;;;;;;6061517;23;20471;-72
2022/09/01 04:48:20;;;;;;;25.60;23.47;;;14.30;99.90;;;;;;6077639;23;20458;-72
2022/09/01 04:50:50;;;;;;;25.40;23.40;;;14.40;99.90;;;;;;6056943;23;20977;-72
2022/09/01 04:53:19;;;;;;;25.30;23.10;;;14.40;99.90;;;;;;6055084;23;20466;-72
2022/09/01 04:55:46;;;;;;;24.93;22.73;;;14.30;99.90;;;;;;6055293;23;20960;-72
2022/09/01 04:58:16;;;;;;;27.00;24.70;;;14.30;99.90;;;;;;6054831;23;20542;-73
2022/09/01 05:00:46;;;;;;;24.60;22.50;;;14.30;99.90;;;;;;6039346;23;20472;-72
2022/09/01 05:03:15;;;;;;;24.90;22.80;;;14.30;99.90;;;;;;6048403;23;20448;-73
2022/09/01 05:05:45;;;;;;;25.93;23.83;;;14.30;99.90;;;;;;6049252;23;22079;-72
2022/09/01 05:08:15;;;;;;;21.97;20.00;;;14.30;99.90;;;;;;6044702;23;20483;-77
2022/09/01 05:10:44;;;;;;;24.80;22.80;;;14.30;99.90;;;;;;6046207;23;20469;-70
2022/09/01 05:13:13;;;;;;;24.57;22.50;;;14.40;99.90;;;;;;6060199;23;20438;-69
2022/09/01 05:15:45;;;;;;;25.30;23.20;;;14.40;99.90;;;;;;6051757;23;20484;-70
2022/09/01 05:18:14;;;;;;;23.83;21.67;;;14.50;99.90;;;;;;6077951;23;20488;-70
2022/09/01 05:20:43;;;;;;;22.77;20.77;;;14.60;99.90;;;;;;6058770;23;20455;-70
2022/09/01 05:23:12;;;;;;;25.13;23.13;;;14.60;99.90;;;;;;6045394;23;20514;-69
2022/09/01 05:25:42;;;;;;;22.43;20.53;;;14.70;99.90;;;;;;6039841;23;20837;-70
2022/09/01 05:28:11;;;;;;;24.83;22.63;;;14.80;99.90;;;;;;6038476;23;20526;-71
2022/09/01 05:30:39;;;;;;;24.63;22.53;;;14.80;99.90;;;;;;6040043;23;20500;-67
2022/09/01 05:33:10;;;;;;;24.37;22.20;;;14.80;99.90;;;;;;6042660;23;22289;-67
2022/09/01 05:35:42;;;;;;;23.73;21.83;;;14.90;99.90;;;;;;6056511;23;20475;-67
2022/09/01 05:38:14;;;;;;;24.23;22.03;;;15.00;99.90;;;;;;6033628;23;20452;-67
2022/09/01 05:40:42;;;;;;;23.20;21.30;;;15.10;99.90;;;;;;6040415;23;20832;-67
2022/09/01 05:43:12;;;;;;;23.70;21.70;;;15.10;99.90;;;;;;6047512;23;20470;-67
2022/09/01 05:45:42;;;;;;;24.00;22.00;;;15.10;99.90;;;;;;6047162;23;20867;-67
2022/09/01 05:48:11;;;;;;;27.00;24.70;;;15.20;99.90;;;;;;6049435;23;20486;-67
2022/09/01 05:50:41;;;;;;;23.90;21.83;;;15.30;99.90;;;;;;6055731;23;20470;-68
2022/09/01 05:53:15;;;;;;;25.10;22.90;;;15.30;99.90;;;;;;6066742;23;20937;-67
2022/09/01 05:55:43;;;;;;;24.33;22.03;;;15.30;99.90;;;;;;6046556;23;20474;-67
2022/09/01 05:58:12;;;;;;;24.23;22.23;;;15.30;99.90;;;;;;6078523;23;20857;-67
2022/09/01 06:00:41;;;;;;;24.60;22.50;;;15.40;99.90;;;;;;6046390;23;20432;-67
2022/09/01 06:03:10;;;;;;;22.03;20.17;;;15.50;99.90;;;;;;6047668;23;20462;-67
2022/09/01 06:05:38;;;;;;;24.23;22.10;;;15.60;99.90;;;;;;6054604;23;20451;-67
2022/09/01 06:08:09;;;;;;;25.03;22.80;;;15.70;99.90;;;;;;6044871;23;20515;-67
2022/09/01 06:10:39;;;;;;;21.97;20.17;;;15.70;99.90;;;;;;6055009;23;20550;-67
2022/09/01 06:13:06;;;;;;;22.50;20.60;;;15.80;99.90;;;;;;6047875;23;20510;-67
2022/09/01 06:15:35;;;;;;;22.77;20.77;;;15.90;99.90;;;;;;6034999;23;20436;-68
2022/09/01 06:18:04;;;;;;;22.10;20.17;;;16.00;99.90;;;;;;6055873;23;20459;-67
2022/09/01 06:20:31;;;;;;;23.13;21.03;;;16.20;99.90;;;;;;6034841;23;20904;-67
2022/09/01 06:22:58;;;;;;;23.20;21.13;;;16.30;99.90;;;;;;6047170;23;20544;-67
2022/09/01 06:25:29;;;;;;;20.10;18.50;;;16.50;99.90;;;;;;6038634;23;20428;-67
2022/09/01 06:27:59;;;;;;;20.70;18.87;;;16.60;99.90;;;;;;6035301;23;20460;-67
2022/09/01 06:30:27;;;;;;;19.07;17.37;;;16.80;99.90;;;;;;6053804;23;20984;-67
2022/09/01 06:32:54;;;;;;;19.30;17.70;;;17.10;99.90;;;;;;6043058;23;20437;-68
2022/09/01 06:35:28;;;;;;;19.83;18.20;;;17.40;99.90;;;;;;6065723;23;20462;-68
2022/09/01 06:37:57;;;;;;;17.67;16.27;;;17.60;99.90;;;;;;6080503;23;20461;-73
2022/09/01 06:40:24;;;;;;;18.00;16.40;;;17.80;99.90;;;;;;6047327;23;20434;-67
2022/09/01 06:42:52;;;;;;;16.87;15.47;;;18.10;99.90;;;;;;6058366;23;20432;-68
2022/09/01 06:45:23;;;;;;;15.43;14.23;;;18.40;99.90;;;;;;6060582;23;20554;-68
2022/09/01 06:47:51;;;;;;;14.43;13.40;;;18.80;99.90;;;;;;6053689;23;20985;-70
2022/09/01 06:50:22;;;;;;;14.93;13.73;;;19.10;99.90;;;;;;6046372;23;20436;-70
2022/09/01 06:53:00;;;;;;;13.93;12.83;;;19.40;99.90;;;;;;6047129;23;20489;-68
2022/09/01 06:55:32;;;;;;;14.93;13.83;;;19.70;99.90;;;;;;6059538;23;20444;-67
2022/09/01 06:58:04;;;;;;;13.20;12.00;;;20.10;99.90;;;;;;6069022;23;20483;-66
2022/09/01 07:00:34;;;;;;;14.00;12.83;;;20.50;99.90;;;;;;6063998;23;20439;-66
2022/09/01 07:03:08;;;;;;;12.70;11.63;;;21.00;99.90;;;;;;6051367;23;20498;-68
2022/09/01 07:05:38;;;;;;;13.73;12.70;;;21.30;99.90;;;;;;6041620;23;20582;-67
2022/09/01 07:08:08;;;;;;;13.40;12.40;;;21.60;99.90;;;;;;6062529;23;20524;-67
2022/09/01 07:10:44;;;;;;;11.67;10.67;;;21.60;99.90;;;;;;6050862;23;20451;-67
2022/09/01 07:13:12;;;;;;;12.50;11.40;;;21.60;99.90;;;;;;6065164;23;21166;-67
2022/09/01 07:15:42;;;;;;;12.63;11.63;;;21.70;99.90;;;;;;6059163;23;20443;-66
2022/09/01 07:18:11;;;;;;;10.17;9.43;;;21.60;99.90;;;;;;6065251;23;20481;-73
2022/09/01 07:20:41;;;;;;;10.43;9.63;;;21.50;99.90;;;;;;6045797;23;20482;-66
2022/09/01 07:23:09;;;;;;;11.83;10.97;;;21.30;99.90;;;;;;6070112;23;20471;-66
2022/09/01 07:25:40;;;;;;;10.53;9.83;;;21.00;99.90;;;;;;6049383;23;20440;-66
2022/09/01 07:28:08;;;;;;;10.83;9.93;;;20.80;99.90;;;;;;6040014;23;20458;-66
2022/09/01 07:30:42;;;;;;;9.63;8.97;;;20.60;99.90;;;;;;6045831;23;21858;-72
2022/09/01 07:33:11;;;;;;;11.00;10.20;;;20.40;99.90;;;;;;6054541;23;20444;-72
2022/09/01 07:35:40;;;;;;;10.67;9.83;;;20.30;99.90;;;;;;6064062;23;20434;-72
2022/09/01 07:38:08;;;;;;;8.23;7.60;;;20.20;99.90;;;;;;6052963;23;21144;-72
2022/09/01 07:40:37;;;;;;;8.53;7.83;;;20.50;99.90;;;;;;6051629;23;20940;-72
2022/09/01 07:43:08;;;;;;;8.57;7.93;;;20.90;99.90;;;;;;6057902;23;20934;-72
2022/09/01 07:45:37;;;;;;;8.23;7.63;;;21.30;99.90;;;;;;6054734;23;20446;-73
2022/09/01 07:48:07;;;;;;;8.50;7.80;;;21.40;99.90;;;;;;6061550;23;20450;-73
2022/09/01 07:50:36;;;;;;;6.80;6.30;;;21.60;99.90;;;;;;6057016;23;20432;-75
2022/09/01 07:53:04;;;;;;;7.33;6.83;;;21.80;99.90;;;;;;6057545;23;20444;-72
2022/09/01 07:55:31;;;;;;;7.50;6.90;;;22.20;99.90;;;;;;6060508;23;20791;-71
2022/09/01 07:57:58;;;;;;;7.27;6.60;;;22.20;99.90;;;;;;6061780;23;21030;-70
2022/09/01 08:00:27;;;;;;;6.87;6.47;;;22.40;99.90;;;;;;6049980;23;20501;-71
2022/09/01 08:02:54;;;;;;;8.20;7.47;;;22.50;99.90;;;;;;6056307;23;20443;-71
2022/09/01 08:05:25;;;;;;;7.47;6.90;;;22.40;99.90;;;;;;6060042;23;20448;-71
2022/09/01 08:07:53;;;;;;;8.40;7.80;;;22.70;99.90;;;;;;6046338;23;20444;-72
2022/09/01 08:10:21;;;;;;;8.30;7.60;;;22.90;99.90;;;;;;6044818;23;20430;-72
2022/09/01 08:12:48;;;;;;;7.80;7.20;;;22.90;99.90;;;;;;6059650;23;20869;-71
2022/09/01 08:15:16;;;;;;;9.20;8.40;;;22.60;99.90;;;;;;6044990;23;20463;-72
2022/09/01 08:17:44;;;;;;;8.70;8.10;;;22.00;99.90;;;;;;6063772;23;20463;-72
2022/09/01 08:20:12;;;;;;;9.40;8.60;;;21.70;99.90;;;;;;6065231;23;20438;-71
2022/09/01 08:22:40;;;;;;;9.83;9.03;;;21.80;99.90;;;;;;6045576;23;20456;-70
2022/09/01 08:25:09;;;;;;;9.60;8.87;;;21.40;99.90;;;;;;6052272;23;20463;-71
2022/09/01 08:27:38;;;;;;;8.47;7.87;;;21.30;99.90;;;;;;6057549;23;21384;-71
2022/09/01 08:30:08;;;;;;;11.10;10.30;;;21.40;99.90;;;;;;6055714;23;20486;-71
2022/09/01 08:32:36;;;;;;;9.80;9.10;;;21.30;99.90;;;;;;6065392;23;20468;-72
2022/09/01 08:35:04;;;;;;;8.90;8.23;;;21.10;99.90;;;;;;6049656;23;20508;-72
2022/09/01 08:37:32;;;;;;;10.77;9.87;;;20.90;99.90;;;;;;6033725;23;20463;-72
2022/09/01 08:40:01;;;;;;;9.90;9.20;;;21.00;99.90;;;;;;6042215;23;20432;-72
2022/09/01 08:42:43;;;;;;;10.70;9.90;;;20.80;99.90;;;;;;6068097;23;20492;-72
2022/09/01 08:45:20;;;;;;;10.80;9.90;;;20.80;99.90;;;;;;6072594;23;20505;-72
2022/09/01 08:47:47;;;;;;;9.33;8.67;;;20.40;99.90;;;;;;6068508;23;20502;-72
2022/09/01 08:50:14;;;;;;;10.90;10.00;;;20.30;99.90;;;;;;6045344;23;20521;-72
2022/09/01 08:52:46;;;;;;;9.60;9.00;;;20.20;99.90;;;;;;6057077;23;20498;-72
2022/09/01 08:55:20;;;;;;;9.50;8.83;;;20.10;99.90;;;;;;6049150;23;20460;-72
2022/09/01 08:57:50;;;;;;;8.70;8.10;;;20.00;99.90;;;;;;6074093;23;20470;-72
2022/09/01 09:00:22;;;;;;;9.27;8.37;;;20.10;99.90;;;;;;6051528;23;20478;-72
2022/09/01 09:02:58;;;;;;;9.40;8.80;;;20.20;99.90;;;;;;6045601;23;20498;-72
2022/09/01 09:05:33;;;;;;;8.30;7.60;;;20.40;99.90;;;;;;6070105;23;21105;-72
2022/09/01 09:08:17;;;;;;;8.33;7.70;;;20.40;99.90;;;;;;6063691;23;20483;-70
2022/09/01 09:10:51;;;;;;;7.30;6.80;;;20.50;99.90;;;;;;6039642;23;20496;-70
2022/09/01 09:13:23;;;;;;;8.13;7.43;;;20.60;99.90;;;;;;6056240;23;20505;-72
2022/09/01 09:15:53;;;;;;;7.73;7.13;;;20.50;99.90;;;;;;6058177;23;20445;-71
2022/09/01 09:18:28;;;;;;;7.33;6.80;;;20.50;99.90;;;;;;6056780;23;20591;-71
2022/09/01 09:20:57;;;;;;;8.20;7.60;;;20.40;99.90;;;;;;6051391;23;20438;-71
2022/09/01 09:23:29;;;;;;;8.20;7.60;;;20.40;99.90;;;;;;6043467;23;20789;-72
2022/09/01 09:25:57;;;;;;;7.67;7.07;;;20.50;99.90;;;;;;6065061;23;20445;-72
2022/09/01 09:28:25;;;;;;;7.97;7.37;;;20.70;99.90;;;;;;6047684;23;20459;-72
2022/09/01 09:31:12;;;;;;;7.37;6.77;;;20.80;99.90;;;;;;6058204;23;20431;-72
2022/09/01 09:33:39;;;;;;;7.50;7.00;;;20.50;99.90;;;;;;6045387;23;20464;-72
2022/09/01 09:36:19;;;;;;;7.77;7.17;;;20.70;99.90;;;;;;6061812;23;20434;-72
2022/09/01 09:38:46;;;;;;;7.33;6.83;;;20.70;99.90;;;;;;6039782;23;20496;-72
2022/09/01 09:41:20;;;;;;;7.93;7.23;;;20.70;99.90;;;;;;6069482;23;20471;-72
2022/09/01 09:43:55;;;;;;;7.20;6.70;;;20.50;99.90;;;;;;6051553;23;20477;-72
2022/09/01 09:46:28;;;;;;;6.83;6.33;;;20.40;99.90;;;;;;6049003;23;20948;-72
2022/09/01 09:49:11;;;;;;;6.70;6.20;;;20.30;99.90;;;;;;6058255;23;20467;-72
2022/09/01 09:51:40;;;;;;;5.80;5.40;;;20.20;99.90;;;;;;6072458;23;20519;-72
2022/09/01 09:54:13;;;;;;;7.00;6.40;;;20.10;99.90;;;;;;6058528;23;20442;-72
2022/09/01 09:56:44;;;;;;;6.83;6.33;;;20.10;99.90;;;;;;6048202;23;20467;-72
2022/09/01 09:59:28;;;;;;;5.70;5.30;;;20.10;99.90;;;;;;6078892;23;20442;-72
2022/09/01 10:01:58;;;;;;;6.40;5.90;;;20.20;99.90;;;;;;6068236;23;20486;-72
2022/09/01 10:04:37;;;;;;;5.67;5.27;;;20.40;99.90;;;;;;6036206;23;20441;-73
2022/09/01 10:07:23;;;;;;;5.00;4.70;;;20.60;99.90;;;;;;6034816;23;20515;-73
2022/09/01 10:09:51;;;;;;;5.60;5.20;;;20.80;99.90;;;;;;6076038;23;20945;-72
2022/09/01 10:12:20;;;;;;;5.10;4.80;;;21.00;99.90;;;;;;6064816;23;20496;-84
2022/09/01 10:14:52;;;;;;;4.70;4.40;;;21.20;99.90;;;;;;6059418;23;20435;-73
2022/09/01 10:17:25;;;;;;;4.90;4.60;;;21.70;99.90;;;;;;6071192;23;20495;-74
2022/09/01 10:19:55;;;;;;;4.47;4.17;;;22.40;99.90;;;;;;6049796;23;22182;-73
2022/09/01 10:22:23;;;;;;;4.90;4.60;;;22.60;99.90;;;;;;6055192;23;20483;-73
2022/09/01 10:24:51;;;;;;;4.43;4.13;;;22.80;99.90;;;;;;6060708;23;20847;-73
2022/09/01 10:27:24;;;;;;;3.87;3.67;;;22.80;99.90;;;;;;6042509;23;20983;-74
2022/09/01 10:29:57;;;;;;;5.27;4.90;;;23.00;99.90;;;;;;6050435;23;20443;-73
2022/09/01 10:32:31;;;;;;;4.57;4.27;;;23.40;99.90;;;;;;6072293;23;20458;-74
2022/09/01 10:35:00;;;;;;;3.70;3.50;;;23.60;99.90;;;;;;6056629;23;20981;-74
2022/09/01 10:37:27;;;;;;;4.40;4.00;;;23.80;99.90;;;;;;6047007;23;20472;-73
2022/09/01 10:40:18;;;;;;;4.37;4.07;;;23.80;99.90;;;;;;6061470;23;20440;-74
2022/09/01 10:42:53;;;;;;;4.60;4.30;;;24.00;99.90;;;;;;6034707;23;20445;-74
2022/09/01 10:45:32;;;;;;;4.50;4.20;;;24.20;99.90;;;;;;6063325;23;20955;-74
2022/09/01 10:48:26;;;;;;;3.90;3.70;;;24.10;99.90;;;;;;6054277;23;20997;-74
2022/09/01 10:51:14;;;;;;;4.27;4.07;;;23.60;99.90;;;;;;6052461;23;20996;-74
2022/09/01 10:53:42;;;;;;;4.73;4.33;;;23.60;99.90;;;;;;6043642;23;20471;-73
2022/09/01 10:56:14;;;;;;;4.27;3.97;;;23.10;99.90;;;;;;6040150;23;20513;-73
2022/09/01 10:58:53;;;;;;;4.47;4.17;;;22.80;99.90;;;;;;6041303;23;20436;-73
2022/09/01 11:02:05;;;;;;;4.70;4.30;;;22.70;99.90;;;;;;6048009;23;20427;-73
2022/09/01 11:05:06;;;;;;;4.70;4.40;;;22.60;99.90;;;;;;6048167;23;20492;-73
2022/09/01 11:07:34;;;;;;;5.03;4.73;;;22.60;99.90;;;;;;6057019;23;20505;-73
2022/09/01 11:10:31;;;;;;;4.97;4.67;;;22.70;99.90;;;;;;6053103;23;20474;-73
2022/09/01 11:13:27;;;;;;;4.77;4.47;;;23.00;99.90;;;;;;6047219;23;20499;-74
2022/09/01 11:15:57;;;;;;;4.40;4.10;;;23.10;99.90;;;;;;6044239;23;20492;-73
2022/09/01 11:18:28;;;;;;;4.50;4.20;;;23.30;99.90;;;;;;6066992;23;20455;-73
2022/09/01 11:20:55;;;;;;;4.80;4.50;;;23.30;99.90;;;;;;6061167;23;20449;-73
2022/09/01 11:23:26;;;;;;;4.77;4.47;;;23.30;99.90;;;;;;6051157;23;20479;-73
2022/09/01 11:25:55;;;;;;;4.63;4.33;;;23.20;99.90;;;;;;6090275;23;20453;-73
2022/09/01 11:28:46;;;;;;;4.30;4.07;;;23.10;99.90;;;;;;6076877;23;20854;-73
2022/09/01 11:31:23;;;;;;;4.30;4.00;;;22.80;99.90;;;;;;6062928;23;20830;-74
2022/09/01 11:34:00;;;;;;;4.60;4.30;;;22.50;99.90;;;;;;6060274;23;20518;-74
2022/09/01 11:36:33;;;;;;;4.20;3.90;;;22.40;99.90;;;;;;6070923;23;20463;-74
2022/09/01 11:39:17;;;;;;;4.63;4.33;;;22.20;99.90;;;;;;6055183;23;20469;-73
2022/09/01 11:41:53;;;;;;;4.50;4.20;;;22.00;99.90;;;;;;6079748;23;20478;-74
2022/09/01 11:44:25;;;;;;;4.90;4.40;;;22.00;99.90;;;;;;6050811;23;20442;-73
2022/09/01 11:47:01;;;;;;;5.10;4.70;;;22.00;99.90;;;;;;6055468;23;20499;-74
2022/09/01 11:49:31;;;;;;;5.20;4.80;;;22.00;99.90;;;;;;6065748;23;20449;-74
2022/09/01 11:52:00;;;;;;;4.20;4.00;;;22.20;99.90;;;;;;6056968;23;20542;-74
2022/09/01 11:54:28;;;;;;;3.60;3.40;;;22.30;99.90;;;;;;6052154;23;20526;-74
2022/09/01 11:56:56;;;;;;;4.63;4.40;;;23.00;99.90;;;;;;6037705;23;20466;-74
2022/09/01 11:59:33;;;;;;;4.73;4.40;;;23.30;99.90;;;;;;6044792;23;20460;-73
2022/09/01 12:02:03;;;;;;;4.53;4.30;;;23.20;99.90;;;;;;6055909;23;20518;-74
2022/09/01 12:04:34;;;;;;;4.83;4.50;;;22.90;99.90;;;;;;6040946;23;20436;-74
2022/09/01 12:07:04;;;;;;;4.70;4.40;;;23.00;99.90;;;;;;6057748;23;20546;-74
2022/09/01 12:09:38;;;;;;;4.57;4.27;;;22.70;99.90;;;;;;6060274;23;20438;-74
2022/09/01 12:12:07;;;;;;;3.77;3.53;;;23.10;99.90;;;;;;6074940;23;20497;-74
2022/09/01 12:14:35;;;;;;;3.70;3.50;;;24.00;99.90;;;;;;6072323;23;20522;-73
2022/09/01 12:17:07;;;;;;;3.70;3.50;;;24.40;99.90;;;;;;6059168;23;20502;-74
2022/09/01 12:19:37;;;;;;;4.10;3.80;;;24.20;99.90;;;;;;6033481;23;20478;-73
2022/09/01 12:22:13;;;;;;;4.53;4.23;;;24.10;99.90;;;;;;6056775;23;20518;-73
2022/09/01 12:24:46;;;;;;;4.30;4.00;;;23.80;99.90;;;;;;6079183;23;20443;-73
2022/09/01 12:27:14;;;;;;;4.27;3.97;;;23.70;99.90;;;;;;6051063;23;20456;-73
2022/09/01 12:29:41;;;;;;;4.43;4.13;;;23.60;99.90;;;;;;6049937;23;20440;-73
2022/09/01 12:32:10;;;;;;;4.40;4.10;;;23.40;99.90;;;;;;6069066;23;20434;-73
2022/09/01 12:34:40;;;;;;;4.30;4.00;;;23.20;99.90;;;;;;6064891;23;20472;-73
2022/09/01 12:37:19;;;;;;;4.63;4.27;;;23.30;99.90;;;;;;6059057;23;20535;-73
2022/09/01 12:39:48;;;;;;;4.23;3.80;;;23.30;99.90;;;;;;6064287;23;20432;-73
2022/09/01 12:42:25;;;;;;;3.67;3.47;;;23.30;99.90;;;;;;6066532;23;20981;-74
2022/09/01 12:44:54;;;;;;;4.27;3.97;;;23.50;99.90;;;;;;6033965;23;20435;-73
2022/09/01 12:47:47;;;;;;;4.30;4.00;;;23.70;99.90;;;;;;6050794;23;20460;-73
2022/09/01 12:50:49;;;;;;;3.93;3.73;;;24.20;99.90;;;;;;6043949;23;20935;-73
2022/09/01 12:53:24;;;;;;;3.70;3.50;;;24.90;99.90;;;;;;5996884;23;20465;-74
2022/09/01 12:56:21;;;;;;;4.40;4.10;;;25.50;99.90;;;;;;5993298;23;20496;-73
2022/09/01 12:58:53;;;;;;;4.13;3.83;;;25.80;99.50;;;;;;6052244;23;20950;-74